Terminal Aerodrome Forecast
Issued by NWS

Home | Current Version | Previous Version | Text Only | Print | Product List | Glossary On
Versions: 1 2 3 4 5 6 7 8 9 10 11 12 13 14 15 16
000
FTUS45 KCYS 311254 AAA
TAFLAR
TAF AMD
KLAR 311254Z 3113/0112 16008KT 3SM BR SKC
     FM311600 15010KT P6SM SKC
     FM311900 13014G25KT P6SM SCT080
     FM010100 15017KT P6SM SKC=

USA.gov is the U.S. government's official web portal to all federal, state and local government web resources and services.